Open Full Screen Window  High Contrast Mode
Wind Gusting 00 knots
15
June 23, 2017 4:36 PM EDT
Weather Information
Wind Direction
  250 °
Wind Speed
  15 kt (17 mph)
Wind Gust
  00 kt (0 mph)
Altimeter
29.62 in
Visibility
10 SM
Temperature
26° C
79° F
Dewpoint
23° C
73° F
Humidity
84%
1hr Rain Fall
00.00 in.
24hr Rain Fall
00.00 in.
Sky Condition
Few @ 1,900 ft
VFR

METAR KPCW 232036Z AUTO 25015KT 10SM FEW019 26/23 A2962 RMK AO2 $

*Background is not an actual portrayal of the airport.